createdAt,value
2023-04-18T00:02:17.327Z,13.37
2023-04-18T00:04:46.423Z,13.37
2023-04-18T00:07:15.148Z,13.37
2023-04-18T00:09:43.714Z,13.38
2023-04-18T00:12:12.221Z,13.39
2023-04-18T00:14:41.043Z,13.41
2023-04-18T00:17:08.849Z,13.43
2023-04-18T00:19:37.625Z,13.47
2023-04-18T00:22:07.473Z,13.50
2023-04-18T00:24:35.238Z,13.50
2023-04-18T00:27:03.342Z,13.49
2023-04-18T00:29:31.945Z,13.50
2023-04-18T00:32:00.039Z,13.51
2023-04-18T00:34:31.530Z,13.50
2023-04-18T00:36:59.358Z,13.52
2023-04-18T00:39:27.396Z,13.53
2023-04-18T00:41:55.333Z,13.54
2023-04-18T00:44:23.078Z,13.53
2023-04-18T00:46:51.293Z,13.48
2023-04-18T00:49:19.088Z,13.46
2023-04-18T00:51:47.258Z,13.46
2023-04-18T00:54:16.953Z,13.46
2023-04-18T00:56:47.941Z,13.43
2023-04-18T00:59:16.922Z,13.42
2023-04-18T01:01:45.278Z,13.40
2023-04-18T01:04:13.750Z,13.37
2023-04-18T01:06:44.097Z,13.36
2023-04-18T01:09:13.893Z,13.36
2023-04-18T01:11:41.714Z,13.35
2023-04-18T01:14:10.550Z,13.38
2023-04-18T01:16:38.951Z,13.36
2023-04-18T01:19:06.717Z,13.36
2023-04-18T01:21:37.509Z,13.37
2023-04-18T01:24:09.901Z,13.40
2023-04-18T01:26:38.119Z,13.41
2023-04-18T01:29:06.816Z,13.42
2023-04-18T01:31:36.284Z,13.41
2023-04-18T01:34:04.874Z,13.39
2023-04-18T01:36:33.699Z,13.36
2023-04-18T01:39:01.785Z,13.34
2023-04-18T01:41:32.856Z,13.32
2023-04-18T01:44:01.161Z,13.30
2023-04-18T01:46:29.160Z,13.29
2023-04-18T01:48:57.286Z,13.29
2023-04-18T01:51:26.584Z,13.29
2023-04-18T01:53:54.413Z,13.26
2023-04-18T01:56:22.426Z,13.24
2023-04-18T01:58:50.352Z,13.22
2023-04-18T02:01:18.331Z,13.20
2023-04-18T02:03:46.931Z,13.18
2023-04-18T02:06:14.864Z,13.17
2023-04-18T02:08:42.658Z,13.18
2023-04-18T02:11:10.463Z,13.18
2023-04-18T02:13:38.328Z,13.16
2023-04-18T02:16:12.011Z,13.16
2023-04-18T02:18:41.398Z,13.15
2023-04-18T02:21:11.501Z,13.15
2023-04-18T02:23:39.283Z,13.17
2023-04-18T02:26:07.169Z,13.18
2023-04-18T02:28:35.203Z,13.17
2023-04-18T02:31:04.590Z,13.17
2023-04-18T02:33:35.338Z,13.16
2023-04-18T02:36:03.325Z,13.14
2023-04-18T02:38:31.839Z,13.10
2023-04-18T02:40:59.951Z,13.04
2023-04-18T02:43:28.070Z,13.00
2023-04-18T02:45:56.224Z,12.95
2023-04-18T02:48:24.084Z,12.90
2023-04-18T02:50:52.166Z,12.85
2023-04-18T02:53:21.196Z,12.80
2023-04-18T02:55:53.859Z,12.76
2023-04-18T02:58:24.008Z,12.73
2023-04-18T03:01:21.210Z,12.70
2023-04-18T03:03:56.473Z,12.67
2023-04-18T03:06:33.686Z,12.64
2023-04-18T03:09:03.502Z,12.62
2023-04-18T03:11:32.694Z,12.61
2023-04-18T03:14:00.921Z,12.61
2023-04-18T03:16:34.190Z,12.63
2023-04-18T03:19:03.380Z,12.64
2023-04-18T03:21:32.561Z,12.65
2023-04-18T03:24:01.107Z,12.68
2023-04-18T03:26:29.095Z,12.70
2023-04-18T03:28:57.426Z,12.70
2023-04-18T03:31:26.352Z,12.69
2023-04-18T03:33:54.202Z,12.70
2023-04-18T03:36:25.468Z,12.71
2023-04-18T03:38:54.623Z,12.72
2023-04-18T03:41:22.487Z,12.71
2023-04-18T03:43:50.842Z,12.67
2023-04-18T03:46:18.850Z,12.64
2023-04-18T03:48:47.661Z,12.64
2023-04-18T03:51:16.754Z,12.65
2023-04-18T03:53:44.594Z,12.64
2023-04-18T03:56:12.724Z,12.62
2023-04-18T03:58:48.309Z,12.63
2023-04-18T04:01:19.377Z,12.63
2023-04-18T04:03:47.399Z,12.65
2023-04-18T04:06:17.949Z,12.68
2023-04-18T04:08:46.512Z,12.71
2023-04-18T04:11:15.101Z,12.74
2023-04-18T04:13:43.260Z,12.77
2023-04-18T04:16:11.820Z,12.83
2023-04-18T04:18:39.630Z,12.90
2023-04-18T04:21:08.070Z,12.96
2023-04-18T04:23:46.301Z,13.04
2023-04-18T04:26:23.362Z,13.11
2023-04-18T04:28:58.631Z,13.16
2023-04-18T04:31:28.841Z,13.19
2023-04-18T04:33:57.625Z,13.21
2023-04-18T04:36:27.237Z,13.23
2023-04-18T04:38:56.038Z,13.26
2023-04-18T04:41:31.679Z,13.29
2023-04-18T04:44:02.013Z,13.31
2023-04-18T04:46:32.635Z,13.30
2023-04-18T04:49:01.255Z,13.31
2023-04-18T04:51:29.134Z,13.31
2023-04-18T04:53:57.614Z,13.33
2023-04-18T04:56:25.703Z,13.34
2023-04-18T04:58:56.133Z,13.35
2023-04-18T05:01:34.649Z,13.33
2023-04-18T05:04:02.579Z,13.33
2023-04-18T05:06:31.423Z,13.35
2023-04-18T05:09:00.962Z,13.34
2023-04-18T05:11:28.829Z,13.33
2023-04-18T05:13:56.625Z,13.33
2023-04-18T05:16:24.541Z,13.35
2023-04-18T05:18:52.478Z,13.36
2023-04-18T05:21:20.557Z,13.35
2023-04-18T05:23:48.403Z,13.29
2023-04-18T05:26:16.453Z,13.26
2023-04-18T05:28:44.626Z,13.23
2023-04-18T05:31:13.936Z,13.23
2023-04-18T05:33:43.424Z,13.27
2023-04-18T05:36:11.252Z,13.32
2023-04-18T05:38:39.206Z,13.38
2023-04-18T05:41:07.069Z,13.48
2023-04-18T05:43:34.945Z,13.56
2023-04-18T05:46:03.009Z,13.65
2023-04-18T05:48:31.014Z,13.70
2023-04-18T05:50:59.127Z,13.76
2023-04-18T05:53:27.158Z,13.78
2023-04-18T05:55:55.133Z,13.78
2023-04-18T05:58:22.924Z,13.77
2023-04-18T06:00:50.883Z,13.76
2023-04-18T06:03:18.987Z,13.75
2023-04-18T06:05:46.936Z,13.75
2023-04-18T06:08:14.784Z,13.75
2023-04-18T06:10:42.785Z,13.77
2023-04-18T06:13:10.756Z,13.76
2023-04-18T06:15:38.813Z,13.77
2023-04-18T06:18:06.891Z,13.77
2023-04-18T06:20:35.020Z,13.78
2023-04-18T06:23:03.225Z,13.92
2023-04-18T06:25:30.954Z,14.07
2023-04-18T06:27:58.817Z,14.08
2023-04-18T06:30:26.788Z,14.02
2023-04-18T06:32:54.708Z,13.99
2023-04-18T06:35:23.249Z,13.98
2023-04-18T06:37:52.110Z,13.97
2023-04-18T06:40:20.068Z,13.99
2023-04-18T06:42:47.804Z,14.04
2023-04-18T06:45:15.893Z,14.09
2023-04-18T06:47:44.254Z,14.10
2023-04-18T06:50:12.008Z,14.15
2023-04-18T06:52:44.617Z,14.21
2023-04-18T06:55:13.537Z,14.28
2023-04-18T06:57:42.054Z,14.36
2023-04-18T07:00:11.088Z,14.45
2023-04-18T07:02:39.619Z,14.54
2023-04-18T07:05:07.956Z,14.64
2023-04-18T07:07:35.939Z,14.73
2023-04-18T07:10:05.041Z,14.85
2023-04-18T07:12:33.114Z,14.93
2023-04-18T07:15:00.914Z,15.04
2023-04-18T07:17:28.770Z,15.12
2023-04-18T07:19:56.929Z,15.18
2023-04-18T07:22:24.900Z,15.25
2023-04-18T07:24:52.598Z,15.28
2023-04-18T07:27:20.753Z,15.33
2023-04-18T07:29:48.483Z,15.38
2023-04-18T07:32:16.284Z,15.46
2023-04-18T07:34:45.340Z,15.71
2023-04-18T07:37:14.917Z,15.95
2023-04-18T07:39:43.025Z,16.14
2023-04-18T07:42:11.427Z,16.18
2023-04-18T07:44:39.294Z,16.19
2023-04-18T07:47:10.053Z,16.36
2023-04-18T07:49:38.173Z,16.54
2023-04-18T07:52:06.016Z,16.68
2023-04-18T07:54:34.062Z,16.92
2023-04-18T07:57:02.274Z,17.14
2023-04-18T07:59:32.301Z,17.23
2023-04-18T08:02:00.702Z,17.35
2023-04-18T08:04:30.383Z,17.50
2023-04-18T08:06:58.909Z,17.76
2023-04-18T08:09:27.007Z,17.86
2023-04-18T08:11:56.681Z,17.95
2023-04-18T08:14:24.720Z,18.13
2023-04-18T08:16:52.480Z,18.27
2023-04-18T08:19:20.231Z,18.45
2023-04-18T08:21:50.905Z,18.65
2023-04-18T08:24:18.770Z,18.77
2023-04-18T08:26:46.612Z,18.81
2023-04-18T08:29:14.609Z,18.94
2023-04-18T08:31:42.956Z,19.12
2023-04-18T08:34:10.750Z,19.23
2023-04-18T08:36:38.460Z,19.43
2023-04-18T08:39:07.938Z,19.59
2023-04-18T08:41:37.174Z,19.63
2023-04-18T08:44:06.458Z,19.61
2023-04-18T08:46:36.284Z,19.37
2023-04-18T08:49:05.227Z,19.35
2023-04-18T08:51:33.897Z,19.35
2023-04-18T08:54:04.669Z,19.22
2023-04-18T08:56:32.692Z,18.97
2023-04-18T08:59:00.538Z,18.68
2023-04-18T09:01:48.569Z,18.39
2023-04-18T09:04:35.738Z,18.04
2023-04-18T09:07:04.807Z,17.74
2023-04-18T09:09:41.977Z,17.47
2023-04-18T09:12:11.622Z,17.31
2023-04-18T09:14:46.811Z,17.28
2023-04-18T09:17:18.662Z,17.26
2023-04-18T09:19:48.946Z,17.25
2023-04-18T09:22:18.215Z,17.26
2023-04-18T09:24:47.983Z,17.26
2023-04-18T09:27:15.957Z,17.25
2023-04-18T09:29:49.572Z,17.25
2023-04-18T09:32:29.459Z,17.36
2023-04-18T09:35:04.379Z,17.56
2023-04-18T09:37:33.090Z,17.87
2023-04-18T09:40:00.876Z,18.10
2023-04-18T09:42:36.335Z,18.18
2023-04-18T09:45:05.486Z,18.10
2023-04-18T09:47:37.798Z,17.89
2023-04-18T09:50:06.885Z,17.65
2023-04-18T09:52:36.136Z,17.47
2023-04-18T09:55:05.355Z,17.33
2023-04-18T09:57:33.876Z,17.17
2023-04-18T10:00:04.111Z,17.01
2023-04-18T10:02:35.959Z,16.92
2023-04-18T10:05:08.016Z,16.93
2023-04-18T10:07:37.358Z,17.00
2023-04-18T10:10:05.911Z,17.14
2023-04-18T10:12:33.856Z,17.24
2023-04-18T10:15:02.034Z,17.50
2023-04-18T10:17:36.798Z,17.80
2023-04-18T10:20:08.012Z,18.11
2023-04-18T10:22:37.017Z,18.47
2023-04-18T10:25:06.365Z,18.81
2023-04-18T10:27:50.014Z,19.01
2023-04-18T10:30:18.381Z,19.06
2023-04-18T10:32:46.777Z,19.23
2023-04-18T10:35:15.397Z,19.47
2023-04-18T10:37:50.547Z,19.69
2023-04-18T10:40:31.958Z,19.70
2023-04-18T10:43:00.360Z,19.55
2023-04-18T10:45:30.919Z,19.66
2023-04-18T10:48:18.017Z,19.77
2023-04-18T10:51:04.595Z,19.81
2023-04-18T10:53:32.872Z,19.69
2023-04-18T10:56:01.122Z,19.43
2023-04-18T10:58:29.242Z,19.23
2023-04-18T11:00:57.330Z,19.06
2023-04-18T11:03:32.895Z,18.91
2023-04-18T11:06:01.596Z,18.85
2023-04-18T11:08:30.133Z,19.06
2023-04-18T11:10:59.196Z,19.43
2023-04-18T11:13:27.013Z,19.84
2023-04-18T11:15:55.221Z,20.22
2023-04-18T11:18:23.152Z,20.53
2023-04-18T11:20:51.722Z,20.81
2023-04-18T11:23:23.092Z,21.06
2023-04-18T11:25:56.483Z,21.37
2023-04-18T11:28:27.606Z,21.65
2023-04-18T11:30:57.732Z,21.65
2023-04-18T11:33:27.525Z,21.49
2023-04-18T11:35:57.480Z,21.42
2023-04-18T11:38:33.425Z,21.64
2023-04-18T11:41:04.552Z,21.77
2023-04-18T11:43:32.395Z,21.72
2023-04-18T11:46:01.801Z,21.56
2023-04-18T11:48:36.732Z,21.38
2023-04-18T11:51:05.439Z,21.24
2023-04-18T11:53:34.658Z,21.10
2023-04-18T11:56:03.989Z,20.99
2023-04-18T11:58:35.562Z,21.02
2023-04-18T12:01:19.856Z,21.15
2023-04-18T12:04:01.746Z,21.35
2023-04-18T12:06:46.620Z,21.49
2023-04-18T12:09:15.381Z,21.46
2023-04-18T12:11:43.314Z,21.43
2023-04-18T12:14:21.913Z,21.28
2023-04-18T12:16:50.523Z,21.01
2023-04-18T12:19:20.907Z,20.79
2023-04-18T12:22:03.541Z,20.84
2023-04-18T12:24:32.378Z,21.06
2023-04-18T12:27:00.369Z,21.25
2023-04-18T12:29:29.085Z,21.33
2023-04-18T12:31:58.776Z,21.39
2023-04-18T12:34:27.838Z,21.50
2023-04-18T12:36:56.171Z,21.59
2023-04-18T12:39:26.037Z,21.41
2023-04-18T12:41:54.637Z,21.09
2023-04-18T12:44:24.765Z,20.77
2023-04-18T12:46:53.337Z,20.47
2023-04-18T12:49:21.977Z,20.38
2023-04-18T12:51:50.423Z,20.36
2023-04-18T12:54:18.614Z,20.39
2023-04-18T12:56:46.728Z,20.46
2023-04-18T12:59:14.762Z,20.60
2023-04-18T13:01:42.802Z,20.57
2023-04-18T13:04:12.864Z,20.42
2023-04-18T13:06:41.602Z,20.40
2023-04-18T13:09:10.633Z,20.28
2023-04-18T13:11:38.515Z,20.24
2023-04-18T13:14:06.319Z,20.13
2023-04-18T13:16:34.386Z,20.04
2023-04-18T13:19:02.570Z,19.85
2023-04-18T13:21:31.342Z,20.00
2023-04-18T13:23:59.385Z,20.22
2023-04-18T13:26:27.479Z,20.38
2023-04-18T13:28:55.221Z,20.52
2023-04-18T13:31:23.105Z,20.64
2023-04-18T13:33:51.792Z,20.59
2023-04-18T13:36:19.635Z,20.62
2023-04-18T13:38:48.306Z,20.65
2023-04-18T13:41:16.522Z,20.70
2023-04-18T13:43:44.608Z,20.65
2023-04-18T13:46:12.427Z,20.63
2023-04-18T13:48:40.634Z,20.49
2023-04-18T13:51:08.484Z,20.30
2023-04-18T13:53:36.402Z,20.10
2023-04-18T13:56:04.784Z,20.01
2023-04-18T13:58:32.753Z,20.07
2023-04-18T14:01:00.938Z,20.17
2023-04-18T14:03:30.260Z,20.20
2023-04-18T14:05:59.408Z,20.23
2023-04-18T14:08:27.692Z,20.16
2023-04-18T14:10:56.048Z,20.15
2023-04-18T14:13:24.067Z,20.14
2023-04-18T14:15:52.962Z,20.10
2023-04-18T14:18:21.902Z,20.00
2023-04-18T14:20:49.784Z,19.98
2023-04-18T14:23:18.061Z,20.05
2023-04-18T14:25:46.382Z,20.00
2023-04-18T14:28:14.234Z,19.96
2023-04-18T14:30:41.960Z,19.89
2023-04-18T14:33:10.701Z,19.83
2023-04-18T14:35:38.440Z,19.78
2023-04-18T14:38:06.210Z,19.76
2023-04-18T14:40:34.257Z,19.67
2023-04-18T14:43:02.303Z,19.58
2023-04-18T14:45:32.523Z,19.48
2023-04-18T14:48:01.068Z,19.43
2023-04-18T14:50:28.903Z,19.35
2023-04-18T14:52:57.107Z,19.36
2023-04-18T14:55:25.475Z,19.42
2023-04-18T14:57:54.846Z,19.49
2023-04-18T15:00:22.864Z,19.50
2023-04-18T15:02:51.021Z,19.50
2023-04-18T15:05:19.714Z,19.51
2023-04-18T15:07:48.061Z,19.47
2023-04-18T15:10:16.230Z,19.51
2023-04-18T15:12:44.192Z,19.52
2023-04-18T15:15:12.474Z,19.45
2023-04-18T15:17:40.486Z,19.35
2023-04-18T15:20:08.905Z,19.26
2023-04-18T15:22:37.423Z,19.16
2023-04-18T15:25:05.851Z,19.08
2023-04-18T15:27:33.739Z,19.05
2023-04-18T15:30:02.388Z,19.03
2023-04-18T15:32:30.281Z,19.01
2023-04-18T15:34:58.230Z,19.00
2023-04-18T15:37:26.369Z,18.95
2023-04-18T15:39:54.301Z,18.88
2023-04-18T15:42:22.449Z,18.77
2023-04-18T15:44:50.284Z,18.72
2023-04-18T15:47:18.238Z,18.67
2023-04-18T15:49:46.298Z,18.59
2023-04-18T15:52:15.939Z,18.57
2023-04-18T15:54:44.104Z,18.53
2023-04-18T15:57:12.117Z,18.46
2023-04-18T15:59:39.854Z,18.41
2023-04-18T16:02:08.819Z,18.38
2023-04-18T16:04:37.127Z,18.34
2023-04-18T16:07:05.097Z,18.32
2023-04-18T16:09:33.320Z,18.32
2023-04-18T16:12:03.442Z,18.31
2023-04-18T16:14:31.313Z,18.30
2023-04-18T16:16:59.727Z,18.30
2023-04-18T16:19:27.982Z,18.29
2023-04-18T16:21:56.010Z,18.26
2023-04-18T16:24:25.700Z,18.21
2023-04-18T16:26:53.599Z,18.12
2023-04-18T16:29:21.816Z,18.05
2023-04-18T16:31:51.615Z,18.00
2023-04-18T16:34:19.765Z,17.93
2023-04-18T16:36:50.833Z,17.86
2023-04-18T16:39:19.287Z,17.81
2023-04-18T16:41:47.655Z,17.76
2023-04-18T16:44:15.642Z,17.74
2023-04-18T16:46:43.755Z,17.68
2023-04-18T16:49:11.908Z,17.63
2023-04-18T16:51:39.852Z,17.60
2023-04-18T16:54:08.725Z,17.56
2023-04-18T16:56:36.533Z,17.51
2023-04-18T16:59:04.543Z,17.45
2023-04-18T17:01:33.972Z,17.41
2023-04-18T17:04:02.461Z,17.36
2023-04-18T17:06:31.516Z,17.30
2023-04-18T17:09:00.017Z,17.25
2023-04-18T17:11:28.094Z,17.20
2023-04-18T17:13:56.352Z,17.12
2023-04-18T17:16:24.625Z,17.04
2023-04-18T17:18:52.417Z,16.99
2023-04-18T17:21:20.570Z,16.91
2023-04-18T17:23:48.525Z,16.82
2023-04-18T17:26:16.255Z,16.75
2023-04-18T17:28:44.221Z,16.68
2023-04-18T17:31:13.724Z,16.61
2023-04-18T17:33:41.762Z,16.54
2023-04-18T17:36:09.741Z,16.44
2023-04-18T17:38:37.511Z,16.33
2023-04-18T17:41:05.680Z,16.25
2023-04-18T17:43:33.575Z,16.16
2023-04-18T17:46:03.631Z,16.10
2023-04-18T17:48:31.966Z,16.07
2023-04-18T17:50:59.981Z,16.03
2023-04-18T17:53:29.160Z,15.98
2023-04-18T17:55:59.609Z,15.94
2023-04-18T17:58:28.205Z,15.89
2023-04-18T18:00:56.481Z,15.86
2023-04-18T18:03:24.624Z,15.84
2023-04-18T18:05:54.916Z,15.77
2023-04-18T18:08:22.834Z,15.71
2023-04-18T18:10:50.765Z,15.67
2023-04-18T18:13:21.837Z,15.59
2023-04-18T18:15:49.856Z,15.53
2023-04-18T18:18:29.725Z,15.46
2023-04-18T18:20:58.341Z,15.40
2023-04-18T18:23:26.940Z,15.32
2023-04-18T18:25:54.851Z,15.24
2023-04-18T18:28:22.758Z,15.19
2023-04-18T18:30:50.867Z,15.15
2023-04-18T18:33:18.990Z,15.12
2023-04-18T18:35:46.727Z,15.08
2023-04-18T18:38:14.507Z,15.07
2023-04-18T18:40:42.411Z,15.04
2023-04-18T18:43:10.500Z,15.01
2023-04-18T18:45:38.948Z,14.99
2023-04-18T18:48:12.729Z,14.96
2023-04-18T18:50:41.948Z,14.90
2023-04-18T18:53:10.137Z,14.83
2023-04-18T18:55:38.409Z,14.78
2023-04-18T18:58:07.903Z,14.72
2023-04-18T19:00:35.693Z,14.67
2023-04-18T19:03:03.703Z,14.61
2023-04-18T19:05:31.542Z,14.58
2023-04-18T19:07:59.628Z,14.53
2023-04-18T19:10:27.431Z,14.47
2023-04-18T19:12:55.375Z,14.42
2023-04-18T19:15:23.602Z,14.38
2023-04-18T19:17:51.802Z,14.35
2023-04-18T19:20:19.587Z,14.31
2023-04-18T19:22:47.504Z,14.28
2023-04-18T19:25:15.717Z,14.24
2023-04-18T19:27:44.042Z,14.18
2023-04-18T19:30:12.108Z,14.16
2023-04-18T19:32:40.340Z,14.15
2023-04-18T19:35:09.882Z,14.14
2023-04-18T19:37:37.583Z,14.14
2023-04-18T19:40:07.137Z,14.16
2023-04-18T19:42:35.105Z,14.16
2023-04-18T19:45:03.221Z,14.13
2023-04-18T19:47:34.173Z,14.12
2023-04-18T19:50:02.347Z,14.13
2023-04-18T19:52:30.194Z,14.10
2023-04-18T19:54:58.367Z,14.09
2023-04-18T19:57:27.710Z,14.07
2023-04-18T19:59:55.723Z,14.03
2023-04-18T20:02:23.918Z,13.99
2023-04-18T20:04:52.097Z,13.96
2023-04-18T20:07:20.075Z,13.94
2023-04-18T20:09:48.206Z,13.93
2023-04-18T20:12:16.003Z,13.92
2023-04-18T20:14:45.189Z,13.88
2023-04-18T20:17:13.271Z,13.84
2023-04-18T20:19:41.418Z,13.76
2023-04-18T20:22:09.747Z,13.73
2023-04-18T20:24:39.559Z,13.72
2023-04-18T20:27:07.661Z,13.68
2023-04-18T20:29:36.048Z,13.66
2023-04-18T20:32:03.963Z,13.62
2023-04-18T20:34:32.143Z,13.59
2023-04-18T20:37:00.127Z,13.58
2023-04-18T20:39:28.138Z,13.55
2023-04-18T20:41:57.812Z,13.53
2023-04-18T20:44:25.819Z,13.54
2023-04-18T20:46:53.871Z,13.52
2023-04-18T20:49:22.064Z,13.47
2023-04-18T20:51:49.754Z,13.43
2023-04-18T20:54:17.801Z,13.42
2023-04-18T20:56:46.233Z,13.41
2023-04-18T20:59:14.046Z,13.38
2023-04-18T21:01:42.015Z,13.35
2023-04-18T21:04:10.092Z,13.35
2023-04-18T21:06:38.054Z,13.33
2023-04-18T21:09:06.550Z,13.28
2023-04-18T21:11:35.068Z,13.23
2023-04-18T21:14:05.720Z,13.18
2023-04-18T21:16:33.761Z,13.12
2023-04-18T21:19:01.967Z,13.07
2023-04-18T21:21:30.045Z,13.00
2023-04-18T21:23:57.910Z,12.97
2023-04-18T21:26:26.423Z,12.94
2023-04-18T21:28:58.492Z,12.86
2023-04-18T21:31:27.256Z,12.82
2023-04-18T21:33:59.259Z,12.79
2023-04-18T21:36:28.189Z,12.74
2023-04-18T21:38:57.244Z,12.68
2023-04-18T21:41:25.648Z,12.65
2023-04-18T21:43:53.775Z,12.65
2023-04-18T21:46:21.760Z,12.63
2023-04-18T21:48:49.578Z,12.61
2023-04-18T21:51:17.560Z,12.59
2023-04-18T21:53:45.474Z,12.58
2023-04-18T21:56:14.107Z,12.56
2023-04-18T21:58:42.785Z,12.52
2023-04-18T22:01:10.747Z,12.51
2023-04-18T22:03:38.610Z,12.53
2023-04-18T22:06:06.767Z,12.53
2023-04-18T22:08:34.817Z,12.49
2023-04-18T22:11:04.833Z,12.47
2023-04-18T22:13:33.376Z,12.46
2023-04-18T22:16:03.533Z,12.41
2023-04-18T22:18:35.277Z,12.40
2023-04-18T22:21:04.292Z,12.36
2023-04-18T22:23:32.191Z,12.32
2023-04-18T22:26:00.243Z,12.30
2023-04-18T22:28:28.447Z,12.27
2023-04-18T22:30:56.811Z,12.24
2023-04-18T22:33:25.165Z,12.19
2023-04-18T22:35:53.183Z,12.16
2023-04-18T22:38:21.141Z,12.13
2023-04-18T22:40:49.210Z,12.09
2023-04-18T22:43:22.594Z,12.07
2023-04-18T22:45:51.260Z,12.04
2023-04-18T22:48:19.414Z,12.02
2023-04-18T22:50:47.392Z,12.04
2023-04-18T22:53:16.105Z,11.99
2023-04-18T22:55:44.611Z,11.96
2023-04-18T22:58:12.344Z,11.96
2023-04-18T23:00:40.141Z,11.95
2023-04-18T23:03:08.554Z,11.91
2023-04-18T23:05:36.470Z,11.83
2023-04-18T23:08:04.628Z,11.79
2023-04-18T23:10:32.404Z,11.79
2023-04-18T23:13:00.706Z,11.79
2023-04-18T23:15:28.676Z,11.78
2023-04-18T23:17:56.439Z,11.80
2023-04-18T23:20:24.315Z,11.77
2023-04-18T23:22:52.848Z,11.72
2023-04-18T23:25:20.727Z,11.71
2023-04-18T23:27:48.865Z,11.71
2023-04-18T23:30:17.295Z,11.70
2023-04-18T23:32:45.371Z,11.65
2023-04-18T23:35:13.458Z,11.60
2023-04-18T23:37:42.179Z,11.57
2023-04-18T23:40:10.169Z,11.57
2023-04-18T23:42:38.271Z,11.61
2023-04-18T23:45:06.508Z,11.64
2023-04-18T23:47:34.782Z,11.71
2023-04-18T23:50:02.668Z,11.75
2023-04-18T23:52:30.659Z,11.75
2023-04-18T23:55:01.906Z,11.72
2023-04-18T23:57:29.705Z,11.69
2023-04-18T23:59:57.753Z,11.66
